sensor_id;sensor_type;location;lat;lon;timestamp;P1;durP1;ratioP1;P2;durP2;ratioP2
30850;SDS011;17567;48.382;9.102;2022-07-17T00:04:07;5.60;;;2.90;;
30850;SDS011;17567;48.382;9.102;2022-07-17T00:09:07;6.90;;;3.10;;
30850;SDS011;17567;48.382;9.102;2022-07-17T00:14:08;3.03;;;2.80;;
30850;SDS011;17567;48.382;9.102;2022-07-17T00:19:09;3.40;;;3.10;;
30850;SDS011;17567;48.382;9.102;2022-07-17T00:24:09;4.50;;;3.10;;
30850;SDS011;17567;48.382;9.102;2022-07-17T00:29:11;5.20;;;3.20;;
30850;SDS011;17567;48.382;9.102;2022-07-17T00:34:12;4.40;;;3.00;;
30850;SDS011;17567;48.382;9.102;2022-07-17T00:39:12;3.67;;;3.33;;
30850;SDS011;17567;48.382;9.102;2022-07-17T00:44:14;3.10;;;2.90;;
30850;SDS011;17567;48.382;9.102;2022-07-17T00:49:14;6.73;;;3.70;;
30850;SDS011;17567;48.382;9.102;2022-07-17T00:54:15;4.10;;;3.00;;
30850;SDS011;17567;48.382;9.102;2022-07-17T00:59:18;6.53;;;3.80;;
30850;SDS011;17567;48.382;9.102;2022-07-17T01:04:19;3.73;;;3.40;;
30850;SDS011;17567;48.382;9.102;2022-07-17T01:09:20;4.00;;;3.70;;
30850;SDS011;17567;48.382;9.102;2022-07-17T01:14:24;6.60;;;3.60;;
30850;SDS011;17567;48.382;9.102;2022-07-17T01:19:26;3.40;;;3.20;;
30850;SDS011;17567;48.382;9.102;2022-07-17T01:24:26;6.00;;;3.37;;
30850;SDS011;17567;48.382;9.102;2022-07-17T01:29:27;5.23;;;3.50;;
30850;SDS011;17567;48.382;9.102;2022-07-17T01:34:27;6.10;;;3.60;;
30850;SDS011;17567;48.382;9.102;2022-07-17T01:39:28;4.93;;;3.83;;
30850;SDS011;17567;48.382;9.102;2022-07-17T01:44:47;3.33;;;3.10;;
30850;SDS011;17567;48.382;9.102;2022-07-17T01:49:49;5.47;;;4.03;;
30850;SDS011;17567;48.382;9.102;2022-07-17T01:54:51;4.80;;;3.70;;
30850;SDS011;17567;48.382;9.102;2022-07-17T01:59:52;4.47;;;4.07;;
30850;SDS011;17567;48.382;9.102;2022-07-17T02:04:53;5.07;;;4.07;;
30850;SDS011;17567;48.382;9.102;2022-07-17T02:09:53;3.83;;;3.40;;
30850;SDS011;17567;48.382;9.102;2022-07-17T02:14:54;3.60;;;3.30;;
30850;SDS011;17567;48.382;9.102;2022-07-17T02:19:55;3.73;;;3.17;;
30850;SDS011;17567;48.382;9.102;2022-07-17T02:24:55;4.00;;;3.67;;
30850;SDS011;17567;48.382;9.102;2022-07-17T02:29:56;5.97;;;4.00;;
30850;SDS011;17567;48.382;9.102;2022-07-17T02:34:56;4.20;;;3.87;;
30850;SDS011;17567;48.382;9.102;2022-07-17T02:39:57;4.33;;;3.90;;
30850;SDS011;17567;48.382;9.102;2022-07-17T02:44:58;4.17;;;3.87;;
30850;SDS011;17567;48.382;9.102;2022-07-17T02:49:59;3.77;;;3.43;;
30850;SDS011;17567;48.382;9.102;2022-07-17T02:55:02;4.23;;;3.83;;
30850;SDS011;17567;48.382;9.102;2022-07-17T03:00:04;4.60;;;4.20;;
30850;SDS011;17567;48.382;9.102;2022-07-17T03:05:08;4.40;;;3.90;;
30850;SDS011;17567;48.382;9.102;2022-07-17T03:10:09;5.37;;;3.73;;
30850;SDS011;17567;48.382;9.102;2022-07-17T03:15:10;4.40;;;4.00;;
30850;SDS011;17567;48.382;9.102;2022-07-17T03:20:11;5.43;;;4.30;;
30850;SDS011;17567;48.382;9.102;2022-07-17T03:25:12;5.90;;;4.50;;
30850;SDS011;17567;48.382;9.102;2022-07-17T03:30:13;4.03;;;3.70;;
30850;SDS011;17567;48.382;9.102;2022-07-17T03:35:13;5.20;;;3.90;;
30850;SDS011;17567;48.382;9.102;2022-07-17T03:40:14;4.80;;;4.17;;
30850;SDS011;17567;48.382;9.102;2022-07-17T03:45:15;4.00;;;3.70;;
30850;SDS011;17567;48.382;9.102;2022-07-17T03:50:16;5.47;;;3.80;;
30850;SDS011;17567;48.382;9.102;2022-07-17T03:55:16;5.47;;;4.57;;
30850;SDS011;17567;48.382;9.102;2022-07-17T04:00:17;5.40;;;4.57;;
30850;SDS011;17567;48.382;9.102;2022-07-17T04:05:18;7.90;;;4.40;;
30850;SDS011;17567;48.382;9.102;2022-07-17T04:10:18;3.80;;;3.47;;
30850;SDS011;17567;48.382;9.102;2022-07-17T04:15:19;6.57;;;4.73;;
30850;SDS011;17567;48.382;9.102;2022-07-17T04:20:38;4.33;;;3.60;;
30850;SDS011;17567;48.382;9.102;2022-07-17T04:25:39;4.63;;;4.33;;
30850;SDS011;17567;48.382;9.102;2022-07-17T04:30:40;5.97;;;4.27;;
30850;SDS011;17567;48.382;9.102;2022-07-17T04:35:41;4.60;;;4.30;;
30850;SDS011;17567;48.382;9.102;2022-07-17T04:40:42;4.40;;;4.10;;
30850;SDS011;17567;48.382;9.102;2022-07-17T04:45:43;4.83;;;4.43;;
30850;SDS011;17567;48.382;9.102;2022-07-17T04:50:43;5.03;;;4.60;;
30850;SDS011;17567;48.382;9.102;2022-07-17T04:55:44;4.97;;;4.37;;
30850;SDS011;17567;48.382;9.102;2022-07-17T05:00:44;6.97;;;4.50;;
30850;SDS011;17567;48.382;9.102;2022-07-17T05:05:45;3.90;;;3.60;;
30850;SDS011;17567;48.382;9.102;2022-07-17T05:10:46;4.90;;;4.50;;
30850;SDS011;17567;48.382;9.102;2022-07-17T05:15:46;6.33;;;4.43;;
30850;SDS011;17567;48.382;9.102;2022-07-17T05:20:47;5.13;;;3.30;;
30850;SDS011;17567;48.382;9.102;2022-07-17T05:25:48;4.33;;;3.87;;
30850;SDS011;17567;48.382;9.102;2022-07-17T05:30:49;6.30;;;4.20;;
30850;SDS011;17567;48.382;9.102;2022-07-17T05:35:49;4.00;;;3.70;;
30850;SDS011;17567;48.382;9.102;2022-07-17T05:40:50;4.30;;;3.90;;
30850;SDS011;17567;48.382;9.102;2022-07-17T05:45:54;3.83;;;3.53;;
30850;SDS011;17567;48.382;9.102;2022-07-17T05:50:56;4.10;;;3.70;;
30850;SDS011;17567;48.382;9.102;2022-07-17T05:55:57;3.40;;;3.13;;
30850;SDS011;17567;48.382;9.102;2022-07-17T06:00:57;3.97;;;3.67;;
30850;SDS011;17567;48.382;9.102;2022-07-17T06:05:58;3.70;;;3.40;;
30850;SDS011;17567;48.382;9.102;2022-07-17T06:10:59;3.37;;;3.07;;
30850;SDS011;17567;48.382;9.102;2022-07-17T06:15:59;3.20;;;3.00;;
30850;SDS011;17567;48.382;9.102;2022-07-17T06:21:00;3.40;;;3.10;;
30850;SDS011;17567;48.382;9.102;2022-07-17T06:26:01;3.40;;;3.10;;
30850;SDS011;17567;48.382;9.102;2022-07-17T06:31:02;4.53;;;3.03;;
30850;SDS011;17567;48.382;9.102;2022-07-17T06:36:05;4.07;;;3.43;;
30850;SDS011;17567;48.382;9.102;2022-07-17T06:41:06;3.10;;;2.90;;
30850;SDS011;17567;48.382;9.102;2022-07-17T06:46:07;3.10;;;2.80;;
30850;SDS011;17567;48.382;9.102;2022-07-17T06:51:07;3.13;;;2.70;;
30850;SDS011;17567;48.382;9.102;2022-07-17T06:56:08;4.63;;;3.77;;
30850;SDS011;17567;48.382;9.102;2022-07-17T07:01:11;5.90;;;3.37;;
30850;SDS011;17567;48.382;9.102;2022-07-17T07:06:13;6.03;;;3.33;;
30850;SDS011;17567;48.382;9.102;2022-07-17T07:11:13;3.50;;;3.20;;
30850;SDS011;17567;48.382;9.102;2022-07-17T07:16:14;3.80;;;3.50;;
30850;SDS011;17567;48.382;9.102;2022-07-17T07:21:17;3.80;;;3.50;;
30850;SDS011;17567;48.382;9.102;2022-07-17T07:26:17;9.60;;;3.80;;
30850;SDS011;17567;48.382;9.102;2022-07-17T07:31:20;3.63;;;3.33;;
30850;SDS011;17567;48.382;9.102;2022-07-17T07:36:21;6.07;;;3.50;;
30850;SDS011;17567;48.382;9.102;2022-07-17T07:41:22;3.90;;;3.60;;
30850;SDS011;17567;48.382;9.102;2022-07-17T07:46:22;4.13;;;3.00;;
30850;SDS011;17567;48.382;9.102;2022-07-17T07:51:24;3.90;;;3.60;;
30850;SDS011;17567;48.382;9.102;2022-07-17T07:56:24;3.40;;;3.10;;
30850;SDS011;17567;48.382;9.102;2022-07-17T08:01:25;8.63;;;3.53;;
30850;SDS011;17567;48.382;9.102;2022-07-17T08:06:26;5.47;;;3.50;;
30850;SDS011;17567;48.382;9.102;2022-07-17T08:11:26;3.80;;;3.50;;
30850;SDS011;17567;48.382;9.102;2022-07-17T08:16:27;5.22;;;3.40;;
30850;SDS011;17567;48.382;9.102;2022-07-17T08:21:28;8.38;;;3.25;;
30850;SDS011;17567;48.382;9.102;2022-07-17T08:26:28;5.40;;;3.30;;
30850;SDS011;17567;48.382;9.102;2022-07-17T08:31:29;3.50;;;3.20;;
30850;SDS011;17567;48.382;9.102;2022-07-17T08:36:30;4.35;;;3.30;;
30850;SDS011;17567;48.382;9.102;2022-07-17T08:41:30;5.10;;;3.13;;
30850;SDS011;17567;48.382;9.102;2022-07-17T08:46:37;4.28;;;3.90;;
30850;SDS011;17567;48.382;9.102;2022-07-17T08:51:39;4.05;;;3.65;;
30850;SDS011;17567;48.382;9.102;2022-07-17T08:56:40;4.13;;;3.33;;
30850;SDS011;17567;48.382;9.102;2022-07-17T09:01:40;4.38;;;2.60;;
30850;SDS011;17567;48.382;9.102;2022-07-17T09:06:41;5.20;;;2.50;;
30850;SDS011;17567;48.382;9.102;2022-07-17T09:22:06;3.00;;;2.53;;
30850;SDS011;17567;48.382;9.102;2022-07-17T09:27:09;5.13;;;2.47;;
30850;SDS011;17567;48.382;9.102;2022-07-17T09:32:10;5.47;;;2.60;;
30850;SDS011;17567;48.382;9.102;2022-07-17T09:37:20;3.70;;;2.63;;
30850;SDS011;17567;48.382;9.102;2022-07-17T09:42:24;2.85;;;2.50;;
30850;SDS011;17567;48.382;9.102;2022-07-17T09:47:27;2.92;;;2.45;;
30850;SDS011;17567;48.382;9.102;2022-07-17T09:52:30;8.23;;;2.50;;
30850;SDS011;17567;48.382;9.102;2022-07-17T09:57:33;4.28;;;2.53;;
30850;SDS011;17567;48.382;9.102;2022-07-17T10:02:34;4.35;;;2.20;;
30850;SDS011;17567;48.382;9.102;2022-07-17T10:07:35;6.43;;;2.30;;
30850;SDS011;17567;48.382;9.102;2022-07-17T10:12:37;2.42;;;2.22;;
30850;SDS011;17567;48.382;9.102;2022-07-17T10:17:39;2.67;;;2.42;;
30850;SDS011;17567;48.382;9.102;2022-07-17T10:22:44;2.50;;;2.30;;
30850;SDS011;17567;48.382;9.102;2022-07-17T10:27:45;2.15;;;1.95;;
30850;SDS011;17567;48.382;9.102;2022-07-17T10:32:56;2.88;;;2.22;;
30850;SDS011;17567;48.382;9.102;2022-07-17T10:38:09;2.25;;;2.00;;
30850;SDS011;17567;48.382;9.102;2022-07-17T10:43:12;2.17;;;1.98;;
30850;SDS011;17567;48.382;9.102;2022-07-17T10:48:17;4.35;;;2.13;;
30850;SDS011;17567;48.382;9.102;2022-07-17T10:53:28;4.93;;;2.50;;
30850;SDS011;17567;48.382;9.102;2022-07-17T10:58:36;4.22;;;2.00;;
30850;SDS011;17567;48.382;9.102;2022-07-17T11:14:06;2.30;;;2.10;;
30850;SDS011;17567;48.382;9.102;2022-07-17T11:19:07;3.10;;;1.88;;
30850;SDS011;17567;48.382;9.102;2022-07-17T11:24:09;3.03;;;2.47;;
30850;SDS011;17567;48.382;9.102;2022-07-17T11:29:11;3.20;;;1.90;;
30850;SDS011;17567;48.382;9.102;2022-07-17T11:34:12;3.60;;;2.30;;
30850;SDS011;17567;48.382;9.102;2022-07-17T11:39:14;2.55;;;2.10;;
30850;SDS011;17567;48.382;9.102;2022-07-17T11:44:17;2.30;;;2.15;;
30850;SDS011;17567;48.382;9.102;2022-07-17T11:49:28;2.58;;;2.20;;
30850;SDS011;17567;48.382;9.102;2022-07-17T11:54:29;3.17;;;1.92;;
30850;SDS011;17567;48.382;9.102;2022-07-17T11:59:31;2.78;;;2.05;;
30850;SDS011;17567;48.382;9.102;2022-07-17T12:04:32;2.45;;;1.85;;
30850;SDS011;17567;48.382;9.102;2022-07-17T12:09:33;1.95;;;1.80;;
30850;SDS011;17567;48.382;9.102;2022-07-17T12:14:34;2.72;;;1.92;;
30850;SDS011;17567;48.382;9.102;2022-07-17T12:19:35;4.55;;;2.10;;
30850;SDS011;17567;48.382;9.102;2022-07-17T12:24:37;2.55;;;2.08;;
30850;SDS011;17567;48.382;9.102;2022-07-17T12:29:38;2.85;;;1.90;;
30850;SDS011;17567;48.382;9.102;2022-07-17T12:34:41;2.45;;;2.00;;
30850;SDS011;17567;48.382;9.102;2022-07-17T12:39:46;2.00;;;1.80;;
30850;SDS011;17567;48.382;9.102;2022-07-17T12:44:47;1.80;;;1.70;;
30850;SDS011;17567;48.382;9.102;2022-07-17T12:49:49;3.85;;;1.88;;
30850;SDS011;17567;48.382;9.102;2022-07-17T12:54:50;1.77;;;1.67;;
30850;SDS011;17567;48.382;9.102;2022-07-17T12:59:51;1.83;;;1.73;;
30850;SDS011;17567;48.382;9.102;2022-07-17T13:04:52;1.73;;;1.63;;
30850;SDS011;17567;48.382;9.102;2022-07-17T13:09:53;3.15;;;1.60;;
30850;SDS011;17567;48.382;9.102;2022-07-17T13:14:55;2.47;;;1.55;;
30850;SDS011;17567;48.382;9.102;2022-07-17T13:19:56;1.90;;;1.40;;
30850;SDS011;17567;48.382;9.102;2022-07-17T13:24:57;2.47;;;1.60;;
30850;SDS011;17567;48.382;9.102;2022-07-17T13:29:58;1.85;;;1.70;;
30850;SDS011;17567;48.382;9.102;2022-07-17T13:34:59;2.10;;;1.60;;
30850;SDS011;17567;48.382;9.102;2022-07-17T13:40:00;2.13;;;1.60;;
30850;SDS011;17567;48.382;9.102;2022-07-17T13:45:02;1.40;;;1.30;;
30850;SDS011;17567;48.382;9.102;2022-07-17T13:50:03;2.03;;;1.48;;
30850;SDS011;17567;48.382;9.102;2022-07-17T13:55:05;1.30;;;1.20;;
30850;SDS011;17567;48.382;9.102;2022-07-17T14:00:06;1.60;;;1.50;;
30850;SDS011;17567;48.382;9.102;2022-07-17T14:05:08;1.55;;;1.45;;
30850;SDS011;17567;48.382;9.102;2022-07-17T14:10:09;1.60;;;1.50;;
30850;SDS011;17567;48.382;9.102;2022-07-17T14:15:10;3.58;;;1.60;;
30850;SDS011;17567;48.382;9.102;2022-07-17T14:20:11;4.07;;;1.60;;
30850;SDS011;17567;48.382;9.102;2022-07-17T14:25:13;3.22;;;1.48;;
30850;SDS011;17567;48.382;9.102;2022-07-17T14:30:14;4.38;;;1.80;;
30850;SDS011;17567;48.382;9.102;2022-07-17T14:35:15;4.10;;;1.63;;
30850;SDS011;17567;48.382;9.102;2022-07-17T14:40:16;1.40;;;1.30;;
30850;SDS011;17567;48.382;9.102;2022-07-17T14:45:17;1.52;;;1.42;;
30850;SDS011;17567;48.382;9.102;2022-07-17T14:50:18;1.60;;;1.50;;
30850;SDS011;17567;48.382;9.102;2022-07-17T14:55:20;3.60;;;1.52;;
30850;SDS011;17567;48.382;9.102;2022-07-17T15:00:21;5.30;;;1.30;;
30850;SDS011;17567;48.382;9.102;2022-07-17T15:05:22;1.08;;;1.08;;
30850;SDS011;17567;48.382;9.102;2022-07-17T15:10:24;1.70;;;1.40;;
30850;SDS011;17567;48.382;9.102;2022-07-17T15:15:25;1.50;;;1.40;;
30850;SDS011;17567;48.382;9.102;2022-07-17T15:20:26;1.75;;;1.23;;
30850;SDS011;17567;48.382;9.102;2022-07-17T15:25:28;1.20;;;1.10;;
30850;SDS011;17567;48.382;9.102;2022-07-17T15:30:29;1.65;;;1.42;;
30850;SDS011;17567;48.382;9.102;2022-07-17T15:35:30;1.70;;;1.60;;
30850;SDS011;17567;48.382;9.102;2022-07-17T15:40:31;1.65;;;1.27;;
30850;SDS011;17567;48.382;9.102;2022-07-17T15:45:32;2.00;;;1.20;;
30850;SDS011;17567;48.382;9.102;2022-07-17T15:50:33;1.50;;;1.02;;
30850;SDS011;17567;48.382;9.102;2022-07-17T15:55:34;1.25;;;1.08;;
30850;SDS011;17567;48.382;9.102;2022-07-17T16:00:35;2.47;;;1.27;;
30850;SDS011;17567;48.382;9.102;2022-07-17T16:05:36;1.70;;;1.30;;
30850;SDS011;17567;48.382;9.102;2022-07-17T16:10:37;1.27;;;1.17;;
30850;SDS011;17567;48.382;9.102;2022-07-17T16:15:39;1.95;;;1.20;;
30850;SDS011;17567;48.382;9.102;2022-07-17T16:20:40;4.35;;;1.40;;
30850;SDS011;17567;48.382;9.102;2022-07-17T16:25:41;1.50;;;1.40;;
30850;SDS011;17567;48.382;9.102;2022-07-17T16:30:42;1.70;;;1.30;;
30850;SDS011;17567;48.382;9.102;2022-07-17T16:35:43;1.40;;;1.30;;
30850;SDS011;17567;48.382;9.102;2022-07-17T16:40:46;1.60;;;1.50;;
30850;SDS011;17567;48.382;9.102;2022-07-17T16:45:47;1.50;;;1.40;;
30850;SDS011;17567;48.382;9.102;2022-07-17T16:50:48;4.65;;;1.40;;
30850;SDS011;17567;48.382;9.102;2022-07-17T16:55:49;1.45;;;1.30;;
30850;SDS011;17567;48.382;9.102;2022-07-17T17:00:50;2.80;;;1.42;;
30850;SDS011;17567;48.382;9.102;2022-07-17T17:05:51;1.20;;;1.13;;
30850;SDS011;17567;48.382;9.102;2022-07-17T17:10:52;1.95;;;1.30;;
30850;SDS011;17567;48.382;9.102;2022-07-17T17:15:53;1.70;;;1.10;;
30850;SDS011;17567;48.382;9.102;2022-07-17T17:20:54;5.40;;;2.03;;
30850;SDS011;17567;48.382;9.102;2022-07-17T17:25:55;3.38;;;2.00;;
30850;SDS011;17567;48.382;9.102;2022-07-17T17:30:57;1.70;;;1.60;;
30850;SDS011;17567;48.382;9.102;2022-07-17T17:35:58;1.50;;;1.30;;
30850;SDS011;17567;48.382;9.102;2022-07-17T17:41:00;3.03;;;1.70;;
30850;SDS011;17567;48.382;9.102;2022-07-17T17:46:01;1.60;;;1.50;;
30850;SDS011;17567;48.382;9.102;2022-07-17T17:51:02;3.30;;;1.70;;
30850;SDS011;17567;48.382;9.102;2022-07-17T17:56:03;2.22;;;1.52;;
30850;SDS011;17567;48.382;9.102;2022-07-17T18:01:04;2.05;;;1.50;;
30850;SDS011;17567;48.382;9.102;2022-07-17T18:06:06;1.55;;;1.45;;
30850;SDS011;17567;48.382;9.102;2022-07-17T18:11:07;1.73;;;1.60;;
30850;SDS011;17567;48.382;9.102;2022-07-17T18:16:08;3.03;;;1.92;;
30850;SDS011;17567;48.382;9.102;2022-07-17T18:21:08;2.30;;;1.55;;
30850;SDS011;17567;48.382;9.102;2022-07-17T18:26:09;1.58;;;1.48;;
30850;SDS011;17567;48.382;9.102;2022-07-17T18:31:10;2.45;;;1.60;;
30850;SDS011;17567;48.382;9.102;2022-07-17T18:36:10;4.82;;;1.85;;
30850;SDS011;17567;48.382;9.102;2022-07-17T18:41:11;2.40;;;1.83;;
30850;SDS011;17567;48.382;9.102;2022-07-17T18:46:12;1.70;;;1.60;;
30850;SDS011;17567;48.382;9.102;2022-07-17T18:51:14;3.00;;;2.70;;
30850;SDS011;17567;48.382;9.102;2022-07-17T18:56:15;2.50;;;1.98;;
30850;SDS011;17567;48.382;9.102;2022-07-17T19:01:15;1.98;;;1.75;;
30850;SDS011;17567;48.382;9.102;2022-07-17T19:06:16;1.83;;;1.67;;
30850;SDS011;17567;48.382;9.102;2022-07-17T19:11:16;1.80;;;1.70;;
30850;SDS011;17567;48.382;9.102;2022-07-17T19:16:18;3.20;;;1.70;;
30850;SDS011;17567;48.382;9.102;2022-07-17T19:21:19;2.20;;;2.00;;
30850;SDS011;17567;48.382;9.102;2022-07-17T19:26:20;2.10;;;1.90;;
30850;SDS011;17567;48.382;9.102;2022-07-17T19:31:21;2.00;;;1.85;;
30850;SDS011;17567;48.382;9.102;2022-07-17T19:36:21;4.53;;;2.00;;
30850;SDS011;17567;48.382;9.102;2022-07-17T19:41:22;4.55;;;2.08;;
30850;SDS011;17567;48.382;9.102;2022-07-17T19:46:23;2.13;;;2.00;;
30850;SDS011;17567;48.382;9.102;2022-07-17T19:51:23;2.20;;;2.00;;
30850;SDS011;17567;48.382;9.102;2022-07-17T19:56:24;2.17;;;2.00;;
30850;SDS011;17567;48.382;9.102;2022-07-17T20:01:25;2.10;;;2.00;;
30850;SDS011;17567;48.382;9.102;2022-07-17T20:06:27;2.40;;;2.20;;
30850;SDS011;17567;48.382;9.102;2022-07-17T20:11:28;3.13;;;2.00;;
30850;SDS011;17567;48.382;9.102;2022-07-17T20:16:29;2.83;;;2.00;;
30850;SDS011;17567;48.382;9.102;2022-07-17T20:21:29;3.85;;;1.95;;
30850;SDS011;17567;48.382;9.102;2022-07-17T20:26:30;2.00;;;1.90;;
30850;SDS011;17567;48.382;9.102;2022-07-17T20:31:31;2.10;;;2.00;;
30850;SDS011;17567;48.382;9.102;2022-07-17T20:36:31;2.50;;;2.20;;
30850;SDS011;17567;48.382;9.102;2022-07-17T20:41:32;4.00;;;2.20;;
30850;SDS011;17567;48.382;9.102;2022-07-17T20:46:33;3.03;;;2.25;;
30850;SDS011;17567;48.382;9.102;2022-07-17T20:51:33;2.00;;;1.90;;
30850;SDS011;17567;48.382;9.102;2022-07-17T20:56:37;2.30;;;2.10;;
30850;SDS011;17567;48.382;9.102;2022-07-17T21:01:38;2.35;;;2.20;;
30850;SDS011;17567;48.382;9.102;2022-07-17T21:06:39;2.72;;;2.28;;
30850;SDS011;17567;48.382;9.102;2022-07-17T21:11:42;3.03;;;2.40;;
30850;SDS011;17567;48.382;9.102;2022-07-17T21:16:44;3.00;;;2.25;;
30850;SDS011;17567;48.382;9.102;2022-07-17T21:21:45;2.90;;;2.70;;
30850;SDS011;17567;48.382;9.102;2022-07-17T21:26:46;3.93;;;2.20;;
30850;SDS011;17567;48.382;9.102;2022-07-17T21:31:46;2.77;;;2.57;;
30850;SDS011;17567;48.382;9.102;2022-07-17T21:36:49;4.77;;;2.80;;
30850;SDS011;17567;48.382;9.102;2022-07-17T21:41:51;2.93;;;2.67;;
30850;SDS011;17567;48.382;9.102;2022-07-17T21:46:53;7.20;;;2.50;;
30850;SDS011;17567;48.382;9.102;2022-07-17T21:51:55;2.57;;;2.37;;
30850;SDS011;17567;48.382;9.102;2022-07-17T21:56:57;2.87;;;2.67;;
30850;SDS011;17567;48.382;9.102;2022-07-17T22:01:58;5.43;;;2.70;;
30850;SDS011;17567;48.382;9.102;2022-07-17T22:07:00;2.70;;;2.50;;
30850;SDS011;17567;48.382;9.102;2022-07-17T22:12:02;3.13;;;2.93;;
30850;SDS011;17567;48.382;9.102;2022-07-17T22:17:04;3.10;;;2.80;;
30850;SDS011;17567;48.382;9.102;2022-07-17T22:22:06;3.17;;;2.90;;
30850;SDS011;17567;48.382;9.102;2022-07-17T22:27:07;5.00;;;2.83;;
30850;SDS011;17567;48.382;9.102;2022-07-17T22:32:08;3.60;;;2.30;;
30850;SDS011;17567;48.382;9.102;2022-07-17T22:37:09;2.73;;;2.53;;
30850;SDS011;17567;48.382;9.102;2022-07-17T22:42:10;4.23;;;2.30;;
30850;SDS011;17567;48.382;9.102;2022-07-17T22:47:10;3.53;;;2.57;;
30850;SDS011;17567;48.382;9.102;2022-07-17T22:52:14;3.13;;;2.13;;
30850;SDS011;17567;48.382;9.102;2022-07-17T22:57:14;2.93;;;2.40;;
30850;SDS011;17567;48.382;9.102;2022-07-17T23:02:15;2.07;;;1.77;;
30850;SDS011;17567;48.382;9.102;2022-07-17T23:07:17;2.50;;;2.30;;
30850;SDS011;17567;48.382;9.102;2022-07-17T23:12:18;2.97;;;2.13;;
30850;SDS011;17567;48.382;9.102;2022-07-17T23:17:19;2.60;;;2.40;;
30850;SDS011;17567;48.382;9.102;2022-07-17T23:22:19;2.60;;;2.40;;
30850;SDS011;17567;48.382;9.102;2022-07-17T23:27:20;3.20;;;2.90;;
30850;SDS011;17567;48.382;9.102;2022-07-17T23:32:21;3.20;;;2.67;;
30850;SDS011;17567;48.382;9.102;2022-07-17T23:37:25;3.47;;;2.93;;
30850;SDS011;17567;48.382;9.102;2022-07-17T23:42:27;2.73;;;2.50;;
30850;SDS011;17567;48.382;9.102;2022-07-17T23:47:28;3.63;;;3.33;;
30850;SDS011;17567;48.382;9.102;2022-07-17T23:52:28;3.00;;;2.80;;
30850;SDS011;17567;48.382;9.102;2022-07-17T23:57:29;2.77;;;2.57;;
